createdAt,value
2017-09-09T00:00:43.055Z,20.30
2017-09-09T00:03:10.608Z,20.52
2017-09-09T00:05:38.232Z,16.12
2017-09-09T00:08:09.712Z,20.77
2017-09-09T00:10:37.437Z,21.80
2017-09-09T00:13:05.075Z,22.73
2017-09-09T00:15:34.356Z,23.40
2017-09-09T00:18:01.894Z,19.37
2017-09-09T00:20:30.163Z,16.67
2017-09-09T00:23:01.864Z,22.85
2017-09-09T00:25:29.375Z,17.40
2017-09-09T00:27:56.883Z,25.80
2017-09-09T00:30:24.411Z,17.10
2017-09-09T00:32:51.923Z,16.10
2017-09-09T00:35:19.445Z,17.43
2017-09-09T00:37:49.182Z,17.83
2017-09-09T00:40:16.919Z,14.20
2017-09-09T00:42:44.427Z,18.73
2017-09-09T00:45:13.656Z,16.90
2017-09-09T00:47:41.159Z,26.87
2017-09-09T00:50:08.672Z,19.90
2017-09-09T00:52:36.286Z,19.53
2017-09-09T00:55:03.838Z,25.27
2017-09-09T00:57:31.956Z,17.23
2017-09-09T01:00:00.272Z,21.92
2017-09-09T01:02:27.779Z,23.00
2017-09-09T01:04:56.991Z,19.53
2017-09-09T01:07:24.579Z,17.90
2017-09-09T01:09:52.102Z,17.90
2017-09-09T01:12:19.796Z,19.53
2017-09-09T01:14:47.431Z,22.03
2017-09-09T01:17:15.863Z,23.05
2017-09-09T01:19:43.406Z,19.07
2017-09-09T01:22:11.002Z,22.43
2017-09-09T01:24:42.199Z,26.30
2017-09-09T01:27:09.938Z,32.97
2017-09-09T01:29:37.447Z,22.53
2017-09-09T01:32:06.074Z,20.88
2017-09-09T01:34:33.616Z,20.17
2017-09-09T01:37:01.944Z,21.17
2017-09-09T01:39:30.286Z,22.40
2017-09-09T01:41:57.791Z,19.83
2017-09-09T01:44:25.872Z,15.98
2017-09-09T01:46:53.379Z,27.80
2017-09-09T01:49:21.697Z,21.73
2017-09-09T01:51:50.034Z,24.25
2017-09-09T01:54:17.827Z,22.63
2017-09-09T01:56:48.971Z,26.77
2017-09-09T01:59:16.548Z,23.30
2017-09-09T02:01:44.303Z,24.55
2017-09-09T02:04:11.843Z,17.30
2017-09-09T02:06:39.636Z,21.33
2017-09-09T02:09:07.151Z,21.77
2017-09-09T02:11:37.962Z,24.10
2017-09-09T02:14:06.384Z,16.57
2017-09-09T02:16:33.899Z,17.03
2017-09-09T02:19:01.404Z,19.20
2017-09-09T02:21:28.917Z,17.13
2017-09-09T02:23:56.784Z,21.63
2017-09-09T02:26:27.746Z,15.00
2017-09-09T02:28:55.287Z,17.80
2017-09-09T02:31:23.234Z,15.68
2017-09-09T02:33:50.779Z,18.47
2017-09-09T02:36:18.364Z,17.05
2017-09-09T02:38:46.083Z,24.25
2017-09-09T02:41:13.745Z,17.53
2017-09-09T02:43:42.235Z,17.83
2017-09-09T02:46:09.759Z,25.47
2017-09-09T02:48:37.367Z,22.57
2017-09-09T02:51:04.879Z,18.77
2017-09-09T02:53:32.423Z,16.20
2017-09-09T02:56:04.212Z,19.73
2017-09-09T02:58:31.723Z,24.35
2017-09-09T03:00:59.288Z,21.75
2017-09-09T03:03:26.798Z,18.13
2017-09-09T03:05:55.218Z,19.17
2017-09-09T03:08:22.723Z,18.77
2017-09-09T03:10:51.409Z,23.40
2017-09-09T03:13:18.919Z,17.83
2017-09-09T03:15:46.554Z,15.37
2017-09-09T03:18:14.103Z,14.20
2017-09-09T03:20:41.816Z,19.60
2017-09-09T03:23:10.248Z,18.70
2017-09-09T03:25:41.723Z,18.17
2017-09-09T03:28:09.361Z,14.98
2017-09-09T03:30:36.896Z,20.77
2017-09-09T03:33:05.082Z,18.27
2017-09-09T03:35:32.620Z,21.87
2017-09-09T03:38:00.175Z,16.30
2017-09-09T03:40:27.871Z,14.90
2017-09-09T03:42:55.382Z,20.30
2017-09-09T03:45:22.942Z,17.43
2017-09-09T03:47:51.241Z,20.12
2017-09-09T03:50:19.012Z,17.42
2017-09-09T03:52:46.671Z,15.10
2017-09-09T03:55:14.215Z,19.12
2017-09-09T03:57:41.807Z,17.87
2017-09-09T04:00:09.468Z,17.73
2017-09-09T04:02:37.845Z,19.33
2017-09-09T04:05:05.595Z,19.00
2017-09-09T04:07:33.315Z,18.13
2017-09-09T04:10:00.867Z,15.50
2017-09-09T04:12:31.370Z,15.52
2017-09-09T04:14:59.129Z,23.93
2017-09-09T04:17:27.219Z,31.33
2017-09-09T04:19:54.748Z,25.17
2017-09-09T04:22:22.287Z,15.77
2017-09-09T04:24:49.822Z,14.68
2017-09-09T04:27:21.065Z,14.07
2017-09-09T04:29:48.563Z,14.10
2017-09-09T04:32:16.699Z,15.32
2017-09-09T04:34:45.138Z,14.47
2017-09-09T04:37:12.652Z,20.58
2017-09-09T04:39:40.159Z,20.55
2017-09-09T04:42:12.199Z,16.40
2017-09-09T04:44:39.710Z,15.83
2017-09-09T04:47:07.330Z,15.63
2017-09-09T04:49:34.839Z,16.53
2017-09-09T04:52:02.341Z,16.37
2017-09-09T04:54:31.292Z,19.10
2017-09-09T04:56:58.796Z,12.67
2017-09-09T04:59:26.334Z,15.07
2017-09-09T05:01:53.882Z,18.12
2017-09-09T05:04:21.391Z,15.18
2017-09-09T05:06:49.955Z,17.20
2017-09-09T05:09:17.618Z,17.47
2017-09-09T05:11:45.127Z,14.85
2017-09-09T05:14:18.095Z,23.70
2017-09-09T05:16:45.729Z,18.13
2017-09-09T05:19:13.251Z,13.77
2017-09-09T05:21:40.755Z,18.73
2017-09-09T05:24:08.310Z,17.80
2017-09-09T05:26:35.958Z,16.58
2017-09-09T05:29:03.808Z,14.25
2017-09-09T05:31:31.611Z,13.62
2017-09-09T05:33:59.254Z,16.15
2017-09-09T05:36:27.018Z,14.60
2017-09-09T05:38:54.926Z,12.43
2017-09-09T05:41:23.085Z,21.52
2017-09-09T05:43:50.618Z,14.43
2017-09-09T05:46:18.443Z,20.60
2017-09-09T05:48:48.425Z,20.10
2017-09-09T05:51:16.315Z,14.73
2017-09-09T05:53:43.819Z,13.98
2017-09-09T05:56:11.364Z,14.27
2017-09-09T05:58:42.412Z,17.17
2017-09-09T06:01:09.928Z,17.37
2017-09-09T06:03:37.630Z,15.90
2017-09-09T06:06:05.164Z,25.90
2017-09-09T06:08:33.496Z,16.83
2017-09-09T06:11:01.007Z,16.40
2017-09-09T06:13:29.287Z,14.85
2017-09-09T06:15:56.875Z,16.57
2017-09-09T06:18:24.533Z,11.27
2017-09-09T06:20:52.404Z,18.10
2017-09-09T06:23:20.828Z,18.27
2017-09-09T06:25:48.331Z,15.07
2017-09-09T06:28:15.826Z,19.67
2017-09-09T06:30:43.462Z,14.57
2017-09-09T06:33:11.035Z,22.33
2017-09-09T06:35:38.685Z,17.10
2017-09-09T06:38:06.202Z,20.13
2017-09-09T06:40:33.744Z,16.27
2017-09-09T06:43:01.304Z,14.37
2017-09-09T06:45:29.387Z,11.55
2017-09-09T06:47:56.896Z,10.00
2017-09-09T06:50:24.419Z,21.33
2017-09-09T06:52:51.975Z,11.80
2017-09-09T06:55:19.708Z,12.80
2017-09-09T06:57:47.343Z,16.40
2017-09-09T07:00:14.862Z,15.27
2017-09-09T07:02:42.775Z,16.45
2017-09-09T07:05:10.292Z,16.67
2017-09-09T07:07:38.600Z,20.90
2017-09-09T07:10:06.141Z,16.20
2017-09-09T07:12:33.895Z,13.98
2017-09-09T07:15:02.560Z,20.83
2017-09-09T07:17:30.891Z,18.50
2017-09-09T07:19:58.423Z,15.43
2017-09-09T07:22:26.740Z,14.63
2017-09-09T07:24:54.291Z,17.17
2017-09-09T07:27:21.800Z,19.93
2017-09-09T07:29:49.376Z,14.75
2017-09-09T07:32:16.933Z,10.97
2017-09-09T07:34:44.612Z,13.63
2017-09-09T07:37:12.130Z,14.70
2017-09-09T07:39:40.180Z,12.43
2017-09-09T07:42:07.701Z,15.47
2017-09-09T07:44:35.361Z,20.53
2017-09-09T07:47:03.504Z,14.73
2017-09-09T07:49:31.140Z,12.73
2017-09-09T07:51:59.883Z,14.60
2017-09-09T07:54:27.393Z,16.00
2017-09-09T07:56:55.739Z,12.03
2017-09-09T07:59:24.176Z,15.65
2017-09-09T08:01:56.789Z,11.00
2017-09-09T08:04:25.231Z,28.40
2017-09-09T08:06:52.799Z,16.43
2017-09-09T08:09:20.312Z,11.53
2017-09-09T08:11:47.861Z,18.53
2017-09-09T08:14:15.367Z,14.63
2017-09-09T08:16:44.565Z,13.48
2017-09-09T08:19:12.072Z,21.10
2017-09-09T08:21:39.779Z,19.13
2017-09-09T08:24:07.308Z,20.07
2017-09-09T08:26:35.330Z,14.77
2017-09-09T08:29:03.858Z,17.30
2017-09-09T08:31:31.369Z,19.52
2017-09-09T08:33:58.916Z,18.17
2017-09-09T08:36:26.476Z,21.53
2017-09-09T08:38:53.983Z,16.35
2017-09-09T08:41:22.439Z,15.57
2017-09-09T08:43:50.004Z,14.27
2017-09-09T08:46:22.058Z,14.80
2017-09-09T08:48:49.596Z,22.77
2017-09-09T08:51:17.868Z,21.33
2017-09-09T08:53:45.560Z,14.50
2017-09-09T08:56:13.144Z,17.80
2017-09-09T08:58:40.732Z,15.80
2017-09-09T09:01:08.289Z,16.40
2017-09-09T09:03:36.324Z,16.25
2017-09-09T09:06:03.865Z,19.00
2017-09-09T09:08:31.366Z,18.43
2017-09-09T09:10:58.919Z,15.37
2017-09-09T09:13:26.427Z,18.77
2017-09-09T09:15:53.959Z,24.57
2017-09-09T09:18:21.561Z,20.10
2017-09-09T09:20:50.046Z,16.23
2017-09-09T09:23:17.623Z,19.93
2017-09-09T09:25:45.355Z,25.93
2017-09-09T09:28:12.875Z,14.40
2017-09-09T09:30:41.151Z,19.60
2017-09-09T09:33:12.347Z,17.45
2017-09-09T09:35:39.890Z,15.30
2017-09-09T09:38:07.561Z,26.33
2017-09-09T09:40:35.617Z,15.25
2017-09-09T09:43:04.068Z,16.90
2017-09-09T09:45:32.389Z,17.20
2017-09-09T09:48:03.845Z,19.13
2017-09-09T09:50:31.352Z,18.60
2017-09-09T09:52:58.996Z,14.67
2017-09-09T09:55:26.828Z,12.90
2017-09-09T09:57:54.402Z,17.63
2017-09-09T10:00:21.936Z,17.73
2017-09-09T10:02:52.950Z,14.13
2017-09-09T10:05:21.226Z,17.07
2017-09-09T10:07:48.741Z,15.03
2017-09-09T10:10:16.282Z,12.00
2017-09-09T10:12:44.195Z,15.75
2017-09-09T10:15:11.991Z,22.33
2017-09-09T10:17:39.534Z,17.53
2017-09-09T10:20:07.376Z,13.52
2017-09-09T10:22:34.882Z,16.25
2017-09-09T10:25:07.439Z,15.90
2017-09-09T10:27:35.737Z,16.20
2017-09-09T10:30:03.247Z,18.40
2017-09-09T10:32:34.683Z,17.48
2017-09-09T10:35:03.010Z,15.65
2017-09-09T10:37:30.544Z,15.98
2017-09-09T10:39:58.059Z,13.00
2017-09-09T10:42:26.055Z,17.13
2017-09-09T10:44:53.582Z,17.27
2017-09-09T10:47:21.147Z,12.20
2017-09-09T10:49:48.861Z,13.20
2017-09-09T10:52:16.652Z,13.95
2017-09-09T10:54:44.216Z,17.60
2017-09-09T10:57:11.844Z,24.57
2017-09-09T10:59:39.511Z,16.57
2017-09-09T11:02:07.829Z,23.40
2017-09-09T11:04:36.487Z,19.52
2017-09-09T11:07:06.113Z,20.17
2017-09-09T11:09:33.918Z,25.13
2017-09-09T11:12:01.437Z,21.30
2017-09-09T11:14:28.952Z,24.17
2017-09-09T11:16:56.464Z,16.25
2017-09-09T11:19:27.099Z,21.42
2017-09-09T11:21:55.549Z,21.17
2017-09-09T11:24:23.087Z,18.67
2017-09-09T11:26:50.591Z,24.50
2017-09-09T11:29:18.432Z,18.30
2017-09-09T11:31:46.221Z,28.17
2017-09-09T11:34:14.448Z,18.62
2017-09-09T11:36:43.351Z,14.87
2017-09-09T11:39:11.639Z,19.70
2017-09-09T11:41:39.392Z,17.85
2017-09-09T11:44:06.931Z,21.10
2017-09-09T11:46:34.444Z,16.70
2017-09-09T11:49:01.967Z,21.10
2017-09-09T11:51:30.262Z,15.90
2017-09-09T11:53:58.245Z,12.95
2017-09-09T11:56:25.814Z,21.95
2017-09-09T11:58:53.410Z,24.40
2017-09-09T12:01:20.937Z,15.60
2017-09-09T12:03:49.990Z,20.03
2017-09-09T12:06:17.969Z,22.42
2017-09-09T12:08:45.745Z,24.77
2017-09-09T12:11:13.363Z,19.60
2017-09-09T12:13:40.967Z,17.83
2017-09-09T12:16:08.478Z,17.07
2017-09-09T12:18:36.651Z,24.48
2017-09-09T12:21:04.163Z,23.80
2017-09-09T12:23:31.688Z,22.27
2017-09-09T12:25:59.227Z,20.23
2017-09-09T12:28:26.732Z,18.93
2017-09-09T12:30:54.253Z,18.60
2017-09-09T12:33:21.772Z,26.03
2017-09-09T12:35:49.296Z,16.00
2017-09-09T12:38:16.841Z,15.63
2017-09-09T12:40:45.260Z,20.08
2017-09-09T12:43:12.828Z,16.90
2017-09-09T12:45:40.711Z,22.92
2017-09-09T12:48:08.224Z,17.04
2017-09-09T12:50:35.870Z,15.23
2017-09-09T12:53:04.380Z,15.45
2017-09-09T12:55:31.911Z,15.35
2017-09-09T12:57:59.463Z,13.40
2017-09-09T13:00:27.306Z,18.93
2017-09-09T13:02:54.831Z,16.53
2017-09-09T13:05:23.723Z,16.12
2017-09-09T13:07:51.227Z,13.27
2017-09-09T13:10:18.851Z,13.87
2017-09-09T13:12:46.354Z,10.20
2017-09-09T13:15:13.898Z,20.35
2017-09-09T13:17:42.321Z,10.20
2017-09-09T13:20:09.882Z,14.13
2017-09-09T13:22:37.429Z,11.83
2017-09-09T13:25:04.975Z,11.12
2017-09-09T13:27:33.300Z,12.30
2017-09-09T13:30:01.996Z,12.10
2017-09-09T13:32:29.639Z,14.20
2017-09-09T13:34:57.143Z,7.72
2017-09-09T13:37:28.648Z,9.50
2017-09-09T13:39:56.155Z,7.77
2017-09-09T13:42:23.688Z,10.38
2017-09-09T13:44:51.221Z,8.27
2017-09-09T13:47:18.838Z,9.83
2017-09-09T13:49:46.439Z,7.27
2017-09-09T13:52:14.004Z,14.27
2017-09-09T13:54:41.517Z,10.73
2017-09-09T13:57:09.045Z,6.37
2017-09-09T13:59:36.543Z,9.70
2017-09-09T14:02:04.492Z,11.30
2017-09-09T14:04:32.038Z,8.73
2017-09-09T14:06:59.543Z,10.60
2017-09-09T14:09:27.051Z,9.55
2017-09-09T14:11:54.563Z,8.07
2017-09-09T14:14:22.345Z,8.53
2017-09-09T14:16:49.875Z,9.97
2017-09-09T14:19:18.438Z,12.18
2017-09-09T14:21:45.959Z,10.40
2017-09-09T14:24:17.362Z,14.90
2017-09-09T14:26:44.872Z,16.42
2017-09-09T14:29:12.856Z,13.73
2017-09-09T14:31:40.367Z,9.47
2017-09-09T14:34:07.928Z,11.10
2017-09-09T14:36:35.601Z,13.93
2017-09-09T14:39:03.111Z,14.33
2017-09-09T14:41:30.667Z,15.50
2017-09-09T14:43:58.216Z,16.08
2017-09-09T14:46:26.456Z,16.90
2017-09-09T14:48:53.963Z,14.40
2017-09-09T14:51:22.270Z,14.33
2017-09-09T14:53:53.361Z,18.50
2017-09-09T14:56:21.443Z,15.43
2017-09-09T14:58:49.152Z,18.60
2017-09-09T15:01:16.720Z,10.73
2017-09-09T15:03:44.220Z,13.10
2017-09-09T15:06:11.722Z,19.27
2017-09-09T15:08:39.354Z,15.90
2017-09-09T15:11:06.858Z,11.07
2017-09-09T15:13:34.930Z,12.90
2017-09-09T15:16:02.472Z,19.13
2017-09-09T15:18:30.030Z,15.93
2017-09-09T15:20:57.755Z,15.85
2017-09-09T15:23:28.978Z,10.73
2017-09-09T15:25:56.488Z,16.37
2017-09-09T15:28:24.214Z,14.05
2017-09-09T15:30:51.717Z,11.30
2017-09-09T15:33:19.262Z,15.80
2017-09-09T15:35:47.111Z,12.60
2017-09-09T15:38:14.623Z,14.68
2017-09-09T15:40:46.075Z,18.20
2017-09-09T15:43:13.662Z,14.98
2017-09-09T15:45:41.279Z,10.50
2017-09-09T15:48:08.802Z,14.63
2017-09-09T15:50:37.999Z,17.70
2017-09-09T15:53:09.268Z,16.87
2017-09-09T15:55:36.952Z,17.65
2017-09-09T15:58:04.475Z,11.13
2017-09-09T16:00:34.018Z,14.30
2017-09-09T16:03:01.791Z,15.07
2017-09-09T16:05:29.391Z,10.07
2017-09-09T16:07:57.285Z,10.30
2017-09-09T16:10:24.902Z,11.73
2017-09-09T16:12:53.421Z,14.98
2017-09-09T16:15:22.692Z,12.97
2017-09-09T16:17:50.199Z,11.13
2017-09-09T16:20:17.738Z,10.13
2017-09-09T16:22:46.067Z,14.50
2017-09-09T16:25:13.578Z,11.07
2017-09-09T16:27:42.795Z,12.88
2017-09-09T16:30:10.340Z,15.20
2017-09-09T16:32:37.922Z,22.50
2017-09-09T16:35:05.427Z,12.85
2017-09-09T16:37:33.844Z,12.10
2017-09-09T16:40:01.404Z,9.67
2017-09-09T16:42:28.903Z,10.67
2017-09-09T16:44:56.416Z,12.43
2017-09-09T16:47:23.911Z,9.57
2017-09-09T16:49:51.443Z,10.37
2017-09-09T16:52:18.989Z,14.33
2017-09-09T16:54:46.494Z,10.30
2017-09-09T16:57:14.953Z,10.40
2017-09-09T16:59:42.494Z,9.13
2017-09-09T17:02:10.043Z,9.93
2017-09-09T17:04:37.615Z,10.03
2017-09-09T17:07:05.189Z,9.03
2017-09-09T17:09:33.412Z,8.90
2017-09-09T17:12:02.867Z,12.48
2017-09-09T17:14:30.623Z,14.07
2017-09-09T17:16:58.733Z,12.88
2017-09-09T17:19:26.280Z,12.83
2017-09-09T17:21:53.895Z,8.33
2017-09-09T17:24:25.184Z,9.87
2017-09-09T17:26:53.749Z,9.77
2017-09-09T17:29:21.296Z,14.37
2017-09-09T17:31:49.256Z,12.73
2017-09-09T17:34:16.819Z,15.50
2017-09-09T17:36:45.091Z,12.30
2017-09-09T17:39:12.735Z,8.07
2017-09-09T17:41:40.364Z,6.70
2017-09-09T17:44:07.951Z,6.23
2017-09-09T17:46:35.543Z,7.67
2017-09-09T17:49:03.064Z,7.70
2017-09-09T17:51:31.199Z,9.53
2017-09-09T17:53:58.723Z,8.10
2017-09-09T17:56:26.635Z,8.90
2017-09-09T17:58:54.151Z,10.37
2017-09-09T18:01:21.650Z,7.80
2017-09-09T18:03:49.165Z,7.50
2017-09-09T18:06:16.667Z,12.73
2017-09-09T18:08:44.205Z,9.40
2017-09-09T18:11:11.711Z,7.50
2017-09-09T18:13:40.325Z,5.65
2017-09-09T18:16:07.841Z,9.37
2017-09-09T18:18:35.349Z,7.43
2017-09-09T18:21:02.945Z,6.23
2017-09-09T18:23:30.484Z,7.00
2017-09-09T18:25:58.046Z,10.57
2017-09-09T18:28:25.546Z,8.20
2017-09-09T18:30:53.523Z,8.60
2017-09-09T18:33:21.837Z,10.97
2017-09-09T18:35:49.371Z,11.20
2017-09-09T18:38:18.661Z,12.33
2017-09-09T18:40:50.763Z,12.63
2017-09-09T18:43:18.832Z,13.50
2017-09-09T18:45:46.375Z,21.20
2017-09-09T18:48:14.647Z,11.20
2017-09-09T18:50:43.997Z,11.53
2017-09-09T18:53:11.511Z,10.47
2017-09-09T18:55:40.127Z,8.47
2017-09-09T18:58:08.303Z,8.30
2017-09-09T19:00:35.831Z,7.00
2017-09-09T19:03:03.366Z,10.43
2017-09-09T19:05:30.925Z,13.13
2017-09-09T19:07:58.436Z,19.17
2017-09-09T19:10:26.280Z,11.80
2017-09-09T19:12:53.831Z,8.32
2017-09-09T19:15:22.448Z,10.40
2017-09-09T19:17:50.204Z,14.50
2017-09-09T19:20:17.873Z,6.97
2017-09-09T19:22:45.715Z,6.85
2017-09-09T19:25:13.301Z,8.70
2017-09-09T19:27:41.252Z,7.64
2017-09-09T19:30:08.769Z,8.68
2017-09-09T19:32:36.263Z,7.10
2017-09-09T19:35:03.812Z,7.57
2017-09-09T19:37:32.120Z,8.17
2017-09-09T19:40:01.583Z,7.10
2017-09-09T19:42:29.108Z,7.30
2017-09-09T19:44:56.675Z,9.68
2017-09-09T19:47:24.932Z,6.87
2017-09-09T19:49:52.443Z,7.00
2017-09-09T19:52:21.087Z,5.83
2017-09-09T19:54:49.248Z,8.13
2017-09-09T19:57:16.759Z,7.75
2017-09-09T19:59:44.256Z,7.07
2017-09-09T20:02:11.819Z,8.03
2017-09-09T20:04:39.365Z,10.00
2017-09-09T20:07:06.866Z,5.75
2017-09-09T20:09:35.342Z,11.37
2017-09-09T20:12:03.272Z,6.37
2017-09-09T20:14:30.762Z,8.10
2017-09-09T20:16:58.321Z,10.50
2017-09-09T20:19:25.859Z,8.90
2017-09-09T20:21:53.407Z,12.17
2017-09-09T20:24:20.912Z,11.23
2017-09-09T20:26:49.203Z,10.20
2017-09-09T20:29:17.523Z,10.02
2017-09-09T20:31:45.397Z,6.85
2017-09-09T20:34:13.063Z,10.23
2017-09-09T20:36:40.583Z,8.75
2017-09-09T20:39:08.895Z,12.70
2017-09-09T20:41:36.596Z,9.60
2017-09-09T20:44:04.107Z,8.10
2017-09-09T20:46:32.147Z,13.03
2017-09-09T20:49:00.571Z,9.40
2017-09-09T20:51:28.131Z,10.40
2017-09-09T20:53:55.639Z,9.40
2017-09-09T20:56:23.195Z,12.27
2017-09-09T20:58:54.379Z,12.35
2017-09-09T21:01:22.445Z,13.70
2017-09-09T21:03:50.772Z,10.88
2017-09-09T21:06:18.284Z,11.88
2017-09-09T21:08:46.042Z,10.37
2017-09-09T21:11:14.376Z,13.06
2017-09-09T21:13:42.135Z,10.95
2017-09-09T21:16:09.666Z,11.40
2017-09-09T21:18:37.256Z,14.15
2017-09-09T21:21:04.766Z,12.47
2017-09-09T21:23:32.271Z,16.70
2017-09-09T21:25:59.885Z,12.13
2017-09-09T21:28:28.315Z,17.52
2017-09-09T21:30:55.823Z,14.73
2017-09-09T21:33:23.323Z,12.30
2017-09-09T21:35:53.342Z,12.63
2017-09-09T21:38:20.864Z,18.80
2017-09-09T21:40:48.386Z,13.50
2017-09-09T21:43:15.882Z,13.23
2017-09-09T21:45:43.570Z,13.80
2017-09-09T21:48:13.048Z,14.77
2017-09-09T21:50:40.547Z,14.63
2017-09-09T21:53:08.847Z,15.25
2017-09-09T21:55:36.959Z,14.65
2017-09-09T21:58:04.655Z,11.07
2017-09-09T22:00:32.174Z,10.90
2017-09-09T22:02:59.691Z,14.53
2017-09-09T22:05:28.002Z,14.70
2017-09-09T22:07:56.187Z,10.40
2017-09-09T22:10:23.723Z,12.90
2017-09-09T22:12:51.264Z,11.40
2017-09-09T22:15:18.773Z,16.93
2017-09-09T22:17:46.318Z,11.37
2017-09-09T22:20:13.826Z,12.17
2017-09-09T22:22:42.121Z,15.87
2017-09-09T22:25:10.424Z,20.75
2017-09-09T22:27:38.486Z,13.90
2017-09-09T22:30:06.158Z,15.33
2017-09-09T22:32:34.320Z,18.30
2017-09-09T22:35:02.748Z,16.23
2017-09-09T22:37:30.416Z,14.00
2017-09-09T22:39:58.900Z,13.30
2017-09-09T22:42:26.414Z,20.48
2017-09-09T22:44:53.939Z,16.30
2017-09-09T22:47:21.479Z,16.80
2017-09-09T22:49:49.342Z,17.00
2017-09-09T22:52:17.007Z,14.57
2017-09-09T22:54:44.518Z,16.80
2017-09-09T22:57:12.855Z,18.00
2017-09-09T22:59:40.379Z,20.00
2017-09-09T23:02:07.884Z,15.03
2017-09-09T23:04:36.199Z,15.50
2017-09-09T23:07:03.702Z,14.82
2017-09-09T23:09:31.759Z,14.80
2017-09-09T23:11:59.268Z,13.43
2017-09-09T23:14:27.239Z,18.17
2017-09-09T23:16:54.750Z,17.57
2017-09-09T23:19:22.391Z,14.50
2017-09-09T23:21:50.051Z,21.60
2017-09-09T23:24:17.587Z,19.07
2017-09-09T23:26:45.863Z,16.33
2017-09-09T23:29:13.395Z,15.77
2017-09-09T23:31:40.918Z,13.55
2017-09-09T23:34:08.455Z,24.27
2017-09-09T23:36:35.958Z,15.37
2017-09-09T23:39:05.190Z,15.60
2017-09-09T23:41:32.713Z,20.27
2017-09-09T23:44:00.271Z,21.17
2017-09-09T23:46:31.256Z,15.50
2017-09-09T23:49:00.795Z,16.47
2017-09-09T23:51:28.391Z,17.30
2017-09-09T23:53:56.367Z,16.60
2017-09-09T23:56:24.089Z,13.60
2017-09-09T23:58:52.373Z,18.57
